createdAt,value
2022-11-24T00:01:05.623Z,3.30
2022-11-24T00:03:32.305Z,3.30
2022-11-24T00:06:10.770Z,3.47
2022-11-24T00:08:38.248Z,2.97
2022-11-24T00:11:06.401Z,4.13
2022-11-24T00:13:33.691Z,3.40
2022-11-24T00:16:15.483Z,3.72
2022-11-24T00:18:43.348Z,3.42
2022-11-24T00:21:10.045Z,3.47
2022-11-24T00:23:36.895Z,3.10
2022-11-24T00:26:05.706Z,3.10
2022-11-24T00:28:33.627Z,3.42
2022-11-24T00:31:00.600Z,3.15
2022-11-24T00:33:27.191Z,2.90
2022-11-24T00:35:57.730Z,3.25
2022-11-24T00:38:24.577Z,3.25
2022-11-24T00:40:52.078Z,3.60
2022-11-24T00:43:19.094Z,3.15
2022-11-24T00:45:45.555Z,3.08
2022-11-24T00:48:12.155Z,4.35
2022-11-24T00:50:38.743Z,3.25
2022-11-24T00:53:05.239Z,3.38
2022-11-24T00:55:31.715Z,3.83
2022-11-24T00:57:58.219Z,3.78
2022-11-24T01:00:24.750Z,3.10
2022-11-24T01:02:52.428Z,3.00
2022-11-24T01:05:19.191Z,3.55
2022-11-24T01:07:46.859Z,3.15
2022-11-24T01:10:13.362Z,4.28
2022-11-24T01:12:39.815Z,3.28
2022-11-24T01:15:06.691Z,3.42
2022-11-24T01:17:33.165Z,3.08
2022-11-24T01:19:59.623Z,3.17
2022-11-24T01:22:27.337Z,3.25
2022-11-24T01:24:53.799Z,2.85
2022-11-24T01:27:20.254Z,3.13
2022-11-24T01:29:46.731Z,3.35
2022-11-24T01:32:13.199Z,3.47
2022-11-24T01:34:39.682Z,3.33
2022-11-24T01:37:06.354Z,3.63
2022-11-24T01:39:33.047Z,3.65
2022-11-24T01:42:02.665Z,4.30
2022-11-24T01:44:30.602Z,3.50
2022-11-24T01:47:36.369Z,3.40
2022-11-24T01:50:03.733Z,3.50
2022-11-24T01:52:38.317Z,3.30
2022-11-24T01:55:11.260Z,3.20
2022-11-24T01:57:44.100Z,3.10
2022-11-24T02:00:13.106Z,3.75
2022-11-24T02:02:47.413Z,2.70
2022-11-24T02:05:21.759Z,3.75
2022-11-24T02:07:48.648Z,3.38
2022-11-24T02:10:16.938Z,3.25
2022-11-24T02:12:46.492Z,3.00
2022-11-24T02:15:17.170Z,2.70
2022-11-24T02:17:44.078Z,3.78
2022-11-24T02:20:11.706Z,3.33
2022-11-24T02:22:47.396Z,3.25
2022-11-24T02:25:25.567Z,3.33
2022-11-24T02:27:54.181Z,3.75
2022-11-24T02:30:20.887Z,3.42
2022-11-24T02:32:47.400Z,3.50
2022-11-24T02:35:14.362Z,3.95
2022-11-24T02:37:40.864Z,3.38
2022-11-24T02:40:08.133Z,3.40
2022-11-24T02:42:41.790Z,3.25
2022-11-24T02:45:09.334Z,2.92
2022-11-24T02:47:35.783Z,3.60
2022-11-24T02:50:02.286Z,3.83
2022-11-24T02:52:28.726Z,4.07
2022-11-24T02:54:55.198Z,3.67
2022-11-24T02:57:22.620Z,3.90
2022-11-24T02:59:49.100Z,3.75
2022-11-24T03:02:15.590Z,3.30
2022-11-24T03:04:42.095Z,3.10
2022-11-24T03:07:09.621Z,3.78
2022-11-24T03:09:36.152Z,3.30
2022-11-24T03:12:02.640Z,4.25
2022-11-24T03:14:29.083Z,3.30
2022-11-24T03:16:55.551Z,3.97
2022-11-24T03:19:21.999Z,3.97
2022-11-24T03:21:48.522Z,4.00
2022-11-24T03:24:15.015Z,3.33
2022-11-24T03:26:42.027Z,4.35
2022-11-24T03:29:09.010Z,3.65
2022-11-24T03:31:35.606Z,4.18
2022-11-24T03:34:02.200Z,3.50
2022-11-24T03:36:28.653Z,3.40
2022-11-24T03:38:55.091Z,3.90
2022-11-24T03:41:21.702Z,4.05
2022-11-24T03:43:48.162Z,3.13
2022-11-24T03:46:14.712Z,3.20
2022-11-24T03:48:41.473Z,3.30
2022-11-24T03:51:08.150Z,3.80
2022-11-24T03:53:34.744Z,3.42
2022-11-24T03:56:01.936Z,3.58
2022-11-24T03:58:28.911Z,3.28
2022-11-24T04:00:55.999Z,3.80
2022-11-24T04:03:23.204Z,3.85
2022-11-24T04:05:49.848Z,3.63
2022-11-24T04:08:17.011Z,3.70
2022-11-24T04:10:43.659Z,3.85
2022-11-24T04:13:12.891Z,3.88
2022-11-24T04:15:40.794Z,3.42
2022-11-24T04:18:08.139Z,3.92
2022-11-24T04:20:34.751Z,3.42
2022-11-24T04:23:01.504Z,3.53
2022-11-24T04:25:28.340Z,4.38
2022-11-24T04:27:55.510Z,3.42
2022-11-24T04:30:23.878Z,3.22
2022-11-24T04:32:50.651Z,3.40
2022-11-24T04:35:17.135Z,3.63
2022-11-24T04:37:43.574Z,4.15
2022-11-24T04:40:11.010Z,4.03
2022-11-24T04:42:37.487Z,3.60
2022-11-24T04:45:05.732Z,3.53
2022-11-24T04:47:32.154Z,3.85
2022-11-24T04:49:58.644Z,4.30
2022-11-24T04:52:25.473Z,3.95
2022-11-24T04:54:52.167Z,3.22
2022-11-24T04:57:26.115Z,3.60
2022-11-24T04:59:53.224Z,3.55
2022-11-24T05:02:19.843Z,3.70
2022-11-24T05:04:46.827Z,4.25
2022-11-24T05:07:18.396Z,3.47
2022-11-24T05:10:04.602Z,3.78
2022-11-24T05:12:31.347Z,3.42
2022-11-24T05:14:59.174Z,3.97
2022-11-24T05:17:32.141Z,3.80
2022-11-24T05:19:58.915Z,3.22
2022-11-24T05:22:26.002Z,4.03
2022-11-24T05:24:52.551Z,3.80
2022-11-24T05:27:19.062Z,4.15
2022-11-24T05:29:45.597Z,4.47
2022-11-24T05:32:12.073Z,3.72
2022-11-24T05:34:38.642Z,4.55
2022-11-24T05:37:05.094Z,3.80
2022-11-24T05:39:37.884Z,4.43
2022-11-24T05:42:25.730Z,4.45
2022-11-24T05:44:52.641Z,4.65
2022-11-24T05:47:19.143Z,3.78
2022-11-24T05:49:45.566Z,4.45
2022-11-24T05:52:12.215Z,3.65
2022-11-24T05:54:38.652Z,4.10
2022-11-24T05:57:05.084Z,4.07
2022-11-24T05:59:31.596Z,4.35
2022-11-24T06:01:58.094Z,4.57
2022-11-24T06:04:24.582Z,4.00
2022-11-24T06:06:51.005Z,3.95
2022-11-24T06:09:17.515Z,3.80
2022-11-24T06:11:43.996Z,3.92
2022-11-24T06:14:11.475Z,4.18
2022-11-24T06:16:38.629Z,4.15
2022-11-24T06:19:05.248Z,3.63
2022-11-24T06:21:32.137Z,4.40
2022-11-24T06:23:58.755Z,4.10
2022-11-24T06:26:25.189Z,5.05
2022-11-24T06:28:51.636Z,3.95
2022-11-24T06:31:18.589Z,4.13
2022-11-24T06:33:45.237Z,3.63
2022-11-24T06:36:13.431Z,4.65
2022-11-24T06:38:39.891Z,4.65
2022-11-24T06:41:09.455Z,4.35
2022-11-24T06:46:02.691Z,3.75
2022-11-24T06:48:29.378Z,4.03
2022-11-24T06:51:00.318Z,4.15
2022-11-24T06:53:27.055Z,3.75
2022-11-24T06:55:53.596Z,3.92
2022-11-24T06:58:20.032Z,3.45
2022-11-24T07:00:46.510Z,4.60
2022-11-24T07:03:16.033Z,5.13
2022-11-24T07:05:43.826Z,3.83
2022-11-24T07:08:16.180Z,3.72
2022-11-24T07:10:44.162Z,5.25
2022-11-24T07:13:10.699Z,4.22
2022-11-24T07:15:37.132Z,4.32
2022-11-24T07:18:03.666Z,3.90
2022-11-24T07:20:30.139Z,3.97
2022-11-24T07:22:57.380Z,4.90
2022-11-24T07:25:26.915Z,4.95
2022-11-24T07:27:59.943Z,4.40
2022-11-24T07:30:27.251Z,3.50
2022-11-24T07:33:01.079Z,3.75
2022-11-24T07:35:28.143Z,3.80
2022-11-24T07:37:56.290Z,2.92
2022-11-24T07:40:23.316Z,3.45
2022-11-24T07:42:49.848Z,2.63
2022-11-24T07:45:16.374Z,2.83
2022-11-24T07:47:42.827Z,3.05
2022-11-24T07:50:10.275Z,2.83
2022-11-24T07:52:37.400Z,3.22
2022-11-24T07:55:05.038Z,3.05
2022-11-24T07:57:31.445Z,3.05
2022-11-24T07:59:57.968Z,2.90
2022-11-24T08:02:24.480Z,2.58
2022-11-24T08:04:51.276Z,3.67
2022-11-24T08:07:17.712Z,2.80
2022-11-24T08:09:44.158Z,3.10
2022-11-24T08:12:10.600Z,2.67
2022-11-24T08:14:37.243Z,2.90
2022-11-24T08:17:03.848Z,3.10
2022-11-24T08:19:32.130Z,3.22
2022-11-24T08:21:58.519Z,2.42
2022-11-24T08:24:24.932Z,2.60
2022-11-24T08:26:51.322Z,3.03
2022-11-24T08:29:17.791Z,2.90
2022-11-24T08:31:44.302Z,2.95
2022-11-24T08:34:10.800Z,2.92
2022-11-24T08:36:37.231Z,3.30
2022-11-24T08:39:03.646Z,2.80
2022-11-24T08:41:30.615Z,2.40
2022-11-24T08:43:57.323Z,3.10
2022-11-24T08:46:24.142Z,2.60
2022-11-24T08:48:54.070Z,2.45
2022-11-24T08:51:23.600Z,3.90
2022-11-24T08:53:54.726Z,3.13
2022-11-24T08:56:22.312Z,3.58
2022-11-24T08:58:48.851Z,3.25
2022-11-24T09:01:16.662Z,2.55
2022-11-24T09:03:51.275Z,3.15
2022-11-24T09:06:27.132Z,3.65
2022-11-24T09:08:54.207Z,3.58
2022-11-24T09:11:21.382Z,3.05
2022-11-24T09:13:48.232Z,2.80
2022-11-24T09:16:20.862Z,3.22
2022-11-24T09:18:47.782Z,3.15
2022-11-24T09:21:16.426Z,2.53
2022-11-24T09:23:43.187Z,2.58
2022-11-24T09:26:14.731Z,3.70
2022-11-24T09:28:41.579Z,3.85
2022-11-24T09:31:11.186Z,3.08
2022-11-24T09:33:38.836Z,3.35
2022-11-24T09:36:06.034Z,2.60
2022-11-24T09:38:32.992Z,3.22
2022-11-24T09:41:31.748Z,3.22
2022-11-24T09:44:22.489Z,2.17
2022-11-24T09:47:26.659Z,2.63
2022-11-24T09:50:04.331Z,2.92
2022-11-24T09:52:49.029Z,2.70
2022-11-24T09:55:28.817Z,3.30
2022-11-24T10:00:40.410Z,3.22
2022-11-24T10:03:14.892Z,3.38
2022-11-24T10:05:42.056Z,3.13
2022-11-24T10:08:38.321Z,3.80
2022-11-24T10:11:13.869Z,3.45
2022-11-24T10:14:04.820Z,2.72
2022-11-24T10:17:11.131Z,3.67
2022-11-24T10:19:52.352Z,3.33
2022-11-24T10:22:38.379Z,2.60
2022-11-24T10:25:26.559Z,3.20
2022-11-24T10:28:00.091Z,3.15
2022-11-24T10:30:27.033Z,2.90
2022-11-24T10:32:58.042Z,2.97
2022-11-24T10:35:30.790Z,3.15
2022-11-24T10:38:29.594Z,3.33
2022-11-24T10:41:03.330Z,3.00
2022-11-24T10:43:29.797Z,3.38
2022-11-24T10:46:09.351Z,2.92
2022-11-24T10:48:47.009Z,2.50
2022-11-24T10:51:41.464Z,2.13
2022-11-24T10:54:20.173Z,3.10
2022-11-24T10:56:47.989Z,2.58
2022-11-24T10:59:21.388Z,2.63
2022-11-24T11:01:47.925Z,2.85
2022-11-24T11:04:20.454Z,2.88
2022-11-24T11:06:47.034Z,3.00
2022-11-24T11:09:13.395Z,3.03
2022-11-24T11:11:40.004Z,2.88
2022-11-24T11:14:07.868Z,1.80
2022-11-24T11:16:42.526Z,2.67
2022-11-24T11:19:54.266Z,2.70
2022-11-24T11:22:25.041Z,3.53
2022-11-24T11:25:04.106Z,3.60
2022-11-24T11:27:30.522Z,2.42
2022-11-24T11:35:50.347Z,2.75
2022-11-24T11:38:17.067Z,3.28
2022-11-24T11:40:43.821Z,2.70
2022-11-24T11:43:19.157Z,2.28
2022-11-24T11:45:46.248Z,2.28
2022-11-24T11:48:27.582Z,2.90
2022-11-24T11:51:22.253Z,3.17
2022-11-24T11:53:55.228Z,3.13
2022-11-24T11:56:28.466Z,2.75
2022-11-24T11:59:12.715Z,2.97
2022-11-24T12:01:57.394Z,2.53
2022-11-24T12:04:57.996Z,2.30
2022-11-24T12:07:34.660Z,2.55
2022-11-24T12:10:07.232Z,2.67
2022-11-24T12:13:03.576Z,3.00
2022-11-24T12:15:40.984Z,2.88
2022-11-24T12:18:57.642Z,2.72
2022-11-24T12:21:26.861Z,3.22
2022-11-24T12:24:17.945Z,2.58
2022-11-24T12:27:06.149Z,2.75
2022-11-24T12:30:00.370Z,2.58
2022-11-24T12:32:37.220Z,2.85
2022-11-24T12:35:23.888Z,2.90
2022-11-24T12:38:19.462Z,2.90
2022-11-24T12:41:39.936Z,3.03
2022-11-24T12:43:53.452Z,2.88
2022-11-24T12:46:29.186Z,2.63
2022-11-24T12:49:31.627Z,2.60
2022-11-24T12:52:03.604Z,2.55
2022-11-24T12:54:36.945Z,2.53
2022-11-24T12:57:12.273Z,2.30
2022-11-24T12:59:46.179Z,2.70
2022-11-24T13:02:18.549Z,2.53
2022-11-24T13:04:52.469Z,2.42
2022-11-24T13:07:22.601Z,2.50
2022-11-24T13:10:54.950Z,2.45
2022-11-24T13:13:15.429Z,2.25
2022-11-24T13:16:20.559Z,2.50
2022-11-24T13:18:47.317Z,2.20
2022-11-24T13:21:51.553Z,2.95
2022-11-24T13:24:19.139Z,2.65
2022-11-24T13:27:16.775Z,3.00
2022-11-24T13:29:47.936Z,2.50
2022-11-24T13:32:21.004Z,1.98
2022-11-24T13:34:49.616Z,2.80
2022-11-24T13:37:28.730Z,2.40
2022-11-24T13:40:14.179Z,2.63
2022-11-24T13:43:19.207Z,2.15
2022-11-24T13:45:45.608Z,2.22
2022-11-24T13:48:21.989Z,2.58
2022-11-24T13:50:53.166Z,2.90
2022-11-24T13:53:36.325Z,2.72
2022-11-24T13:56:02.697Z,2.78
2022-11-24T13:58:38.837Z,2.63
2022-11-24T14:01:22.151Z,2.63
2022-11-24T14:04:42.931Z,2.78
2022-11-24T14:07:07.925Z,2.58
2022-11-24T14:09:40.720Z,2.60
2022-11-24T14:12:24.169Z,3.03
2022-11-24T14:14:52.314Z,2.35
2022-11-24T14:17:22.562Z,2.83
2022-11-24T14:19:51.479Z,2.45
2022-11-24T14:22:20.735Z,3.00
2022-11-24T14:27:26.121Z,2.70
2022-11-24T14:29:54.716Z,3.20
2022-11-24T14:32:21.926Z,2.83
2022-11-24T14:34:48.474Z,2.78
2022-11-24T14:37:14.941Z,2.50
2022-11-24T14:39:42.208Z,2.70
2022-11-24T14:42:27.479Z,3.38
2022-11-24T14:45:02.787Z,3.30
2022-11-24T14:47:36.282Z,3.05
2022-11-24T14:50:10.313Z,3.38
2022-11-24T14:52:43.886Z,2.80
2022-11-24T14:55:24.349Z,3.10
2022-11-24T14:57:50.898Z,3.28
2022-11-24T15:00:30.821Z,2.72
2022-11-24T15:03:17.464Z,3.20
2022-11-24T15:05:55.544Z,2.70
2022-11-24T15:08:24.168Z,3.03
2022-11-24T15:11:00.302Z,2.40
2022-11-24T15:13:27.473Z,3.05
2022-11-24T15:16:06.651Z,3.22
2022-11-24T15:18:41.909Z,2.65
2022-11-24T15:21:11.691Z,2.75
2022-11-24T15:23:41.889Z,3.15
2022-11-24T15:26:11.025Z,2.47
2022-11-24T15:31:11.393Z,2.60
2022-11-24T15:33:38.326Z,2.97
2022-11-24T15:36:05.031Z,3.25
2022-11-24T15:38:31.504Z,2.95
2022-11-24T15:40:59.567Z,2.65
2022-11-24T15:43:34.605Z,2.33
2022-11-24T15:46:02.189Z,2.65
2022-11-24T15:48:29.085Z,3.03
2022-11-24T15:50:56.693Z,2.60
2022-11-24T15:53:39.072Z,2.90
2022-11-24T15:56:07.729Z,2.83
2022-11-24T15:58:34.558Z,3.00
2022-11-24T16:01:01.070Z,2.78
2022-11-24T16:06:22.016Z,3.20
2022-11-24T16:08:50.501Z,2.47
2022-11-24T16:11:16.896Z,3.50
2022-11-24T16:13:46.994Z,3.38
2022-11-24T16:16:18.571Z,3.28
2022-11-24T16:18:45.359Z,2.85
2022-11-24T16:21:11.795Z,3.30
2022-11-24T16:23:38.223Z,3.25
2022-11-24T16:26:05.403Z,2.70
2022-11-24T16:28:32.199Z,2.88
2022-11-24T16:30:58.748Z,3.10
2022-11-24T16:33:25.285Z,2.65
2022-11-24T16:35:51.710Z,3.05
2022-11-24T16:38:19.332Z,2.75
2022-11-24T16:40:54.239Z,2.95
2022-11-24T16:43:20.755Z,3.25
2022-11-24T16:45:54.276Z,2.90
2022-11-24T16:48:20.761Z,2.60
2022-11-24T16:50:47.256Z,2.72
2022-11-24T16:53:13.739Z,3.83
2022-11-24T16:55:40.160Z,3.17
2022-11-24T16:58:06.603Z,3.05
2022-11-24T17:00:33.000Z,2.80
2022-11-24T17:02:59.404Z,3.30
2022-11-24T17:05:25.820Z,3.50
2022-11-24T17:07:52.541Z,3.13
2022-11-24T17:10:19.264Z,3.10
2022-11-24T17:12:45.747Z,2.60
2022-11-24T17:18:23.625Z,2.40
2022-11-24T17:20:45.114Z,2.85
2022-11-24T17:23:11.571Z,2.72
2022-11-24T17:25:37.978Z,2.38
2022-11-24T17:28:04.596Z,2.45
2022-11-24T17:30:31.001Z,3.15
2022-11-24T17:32:57.397Z,2.72
2022-11-24T17:35:23.827Z,2.92
2022-11-24T17:37:50.230Z,2.50
2022-11-24T17:40:34.587Z,2.47
2022-11-24T17:43:01.535Z,2.90
2022-11-24T17:45:28.920Z,3.40
2022-11-24T17:47:56.499Z,2.95
2022-11-24T17:50:26.029Z,2.88
2022-11-24T17:52:53.702Z,3.50
2022-11-24T17:55:20.170Z,3.00
2022-11-24T17:57:46.597Z,4.95
2022-11-24T18:00:13.700Z,3.65
2022-11-24T18:02:40.155Z,4.00
2022-11-24T18:05:06.973Z,2.70
2022-11-24T18:07:35.906Z,2.78
2022-11-24T18:10:02.382Z,2.83
2022-11-24T18:12:28.817Z,3.78
2022-11-24T18:14:55.376Z,3.13
2022-11-24T18:17:21.888Z,3.33
2022-11-24T18:19:48.328Z,3.13
2022-11-24T18:22:14.782Z,3.42
2022-11-24T18:24:44.203Z,3.00
2022-11-24T18:27:11.064Z,3.00
2022-11-24T18:29:38.512Z,3.20
2022-11-24T18:32:06.693Z,2.90
2022-11-24T18:34:33.432Z,2.90
2022-11-24T18:37:00.150Z,2.90
2022-11-24T18:39:28.272Z,2.88
2022-11-24T18:41:54.718Z,3.20
2022-11-24T18:44:21.267Z,3.28
2022-11-24T18:46:48.865Z,3.25
2022-11-24T18:49:15.303Z,3.45
2022-11-24T18:51:41.699Z,3.55
2022-11-24T18:54:08.209Z,3.10
2022-11-24T18:56:34.697Z,2.72
2022-11-24T18:59:01.222Z,2.95
2022-11-24T19:01:28.581Z,2.65
2022-11-24T19:03:57.207Z,2.83
2022-11-24T19:06:28.821Z,3.00
2022-11-24T19:08:55.820Z,3.45
2022-11-24T19:11:28.159Z,2.92
2022-11-24T19:13:55.745Z,3.35
2022-11-24T19:16:22.940Z,3.55
2022-11-24T19:18:53.992Z,3.13
2022-11-24T19:21:21.329Z,2.55
2022-11-24T19:23:47.746Z,3.10
2022-11-24T19:26:14.735Z,3.25
2022-11-24T19:28:41.150Z,3.28
2022-11-24T19:31:10.250Z,3.10
2022-11-24T19:33:36.733Z,3.08
2022-11-24T19:36:22.485Z,2.80
2022-11-24T19:38:51.226Z,2.78
2022-11-24T19:41:21.460Z,3.00
2022-11-24T19:43:48.359Z,3.35
2022-11-24T19:46:18.341Z,3.35
2022-11-24T19:48:54.434Z,2.30
2022-11-24T19:51:23.133Z,3.05
2022-11-24T19:53:49.570Z,4.20
2022-11-24T19:56:21.542Z,2.60
2022-11-24T19:58:49.105Z,3.08
2022-11-24T20:01:21.595Z,2.45
2022-11-24T20:03:58.843Z,2.90
2022-11-24T20:06:28.050Z,2.75
2022-11-24T20:08:54.599Z,2.53
2022-11-24T20:11:21.609Z,2.60
2022-11-24T20:13:49.695Z,2.67
2022-11-24T20:16:18.175Z,1.70
2022-11-24T20:18:46.368Z,2.50
2022-11-24T20:21:19.678Z,2.33
2022-11-24T20:23:52.393Z,1.80
2022-11-24T20:26:20.733Z,2.17
2022-11-24T20:28:47.249Z,2.33
2022-11-24T20:31:20.631Z,3.38
2022-11-24T20:33:47.449Z,2.53
2022-11-24T20:36:18.606Z,2.88
2022-11-24T20:38:46.354Z,2.20
2022-11-24T20:41:18.110Z,2.60
2022-11-24T20:43:45.378Z,2.25
2022-11-24T20:46:14.746Z,3.35
2022-11-24T20:48:41.287Z,2.45
2022-11-24T20:51:23.107Z,5.03
2022-11-24T20:53:51.148Z,2.85
2022-11-24T20:56:23.105Z,3.22
2022-11-24T20:58:52.972Z,2.22
2022-11-24T21:01:21.981Z,2.58
2022-11-24T21:03:53.038Z,2.25
2022-11-24T21:06:19.450Z,4.20
2022-11-24T21:08:45.884Z,2.70
2022-11-24T21:11:13.764Z,3.10
2022-11-24T21:13:42.165Z,3.17
2022-11-24T21:16:12.824Z,2.63
2022-11-24T21:18:39.313Z,2.38
2022-11-24T21:21:05.971Z,2.90
2022-11-24T21:23:32.759Z,3.20
2022-11-24T21:26:05.632Z,2.95
2022-11-24T21:28:33.673Z,2.30
2022-11-24T21:31:04.969Z,2.75
2022-11-24T21:33:31.586Z,2.10
2022-11-24T21:36:05.462Z,2.47
2022-11-24T21:38:31.926Z,2.00
2022-11-24T21:41:06.342Z,2.78
2022-11-24T21:43:33.275Z,1.95
2022-11-24T21:46:05.321Z,2.55
2022-11-24T21:48:32.732Z,2.55
2022-11-24T21:51:03.402Z,1.88
2022-11-24T21:53:31.745Z,2.00
2022-11-24T21:56:00.318Z,2.40
2022-11-24T21:58:27.557Z,2.58
2022-11-24T22:00:54.934Z,2.05
2022-11-24T22:03:21.560Z,2.40
2022-11-24T22:05:58.894Z,1.83
2022-11-24T22:08:27.362Z,2.30
2022-11-24T22:10:54.048Z,2.00
2022-11-24T22:13:20.485Z,2.45
2022-11-24T22:15:46.922Z,2.88
2022-11-24T22:18:13.381Z,1.98
2022-11-24T22:20:39.877Z,2.72
2022-11-24T22:23:06.295Z,2.50
2022-11-24T22:25:33.492Z,2.40
2022-11-24T22:27:59.936Z,2.83
2022-11-24T22:30:26.383Z,3.03
2022-11-24T22:32:53.081Z,2.92
2022-11-24T22:35:19.589Z,3.15
2022-11-24T22:37:46.039Z,3.28
2022-11-24T22:40:12.526Z,2.90
2022-11-24T22:42:38.934Z,2.60
2022-11-24T22:45:05.978Z,2.90
2022-11-24T22:47:32.779Z,2.95
2022-11-24T22:49:59.310Z,2.47
2022-11-24T22:52:25.817Z,2.58
2022-11-24T22:54:52.284Z,2.65
2022-11-24T22:57:18.779Z,2.70
2022-11-24T22:59:45.197Z,2.80
2022-11-24T23:02:11.607Z,2.50
2022-11-24T23:04:38.270Z,2.92
2022-11-24T23:07:04.745Z,2.60
2022-11-24T23:09:31.217Z,3.00
2022-11-24T23:11:57.646Z,2.65
2022-11-24T23:14:24.137Z,2.88
2022-11-24T23:16:50.734Z,3.92
2022-11-24T23:19:17.808Z,2.70
2022-11-24T23:21:44.404Z,3.15
2022-11-24T23:24:11.486Z,3.17
2022-11-24T23:26:39.880Z,2.75
2022-11-24T23:29:07.183Z,3.05
2022-11-24T23:31:33.701Z,2.67
2022-11-24T23:34:02.159Z,3.90
2022-11-24T23:36:29.620Z,2.10
2022-11-24T23:38:56.546Z,3.28
2022-11-24T23:41:25.440Z,3.13
2022-11-24T23:43:52.363Z,2.67
2022-11-24T23:46:20.871Z,3.22
2022-11-24T23:48:48.020Z,2.55
2022-11-24T23:51:18.735Z,2.45
2022-11-24T23:53:45.520Z,3.53
2022-11-24T23:56:14.125Z,3.75
2022-11-24T23:58:40.808Z,3.28
